Terminal Aerodrome Forecast
Issued by NWS

Home | Current Version | Previous Version | Text Only | Print | Product List | Glossary On
Versions: 1 2 3 4 5 6 7 8 9 10 11 12 13 14
263
FTUS42 KMHX 112224 AAA
TAFISO
TAF AMD
KISO 112224Z 1122/1218 29005KT P6SM SKC
     FM112300 VRB03KT P6SM SKC
     FM121100 03004KT P6SM BKN100
     FM121500 06006KT 4SM -SN OVC020
      AMD LTD TO CLD VIS AND WIND=

USA.gov is the U.S. government's official web portal to all federal, state and local government web resources and services.